Time;durP1;ratioP1;P1;durP2;ratioP2;P2;SDS_P1;SDS_P2;PMS_P1;PMS_P2;Temp;Humidity;BMP_temperature;BMP_pressure;BME280_temperature;BME280_humidity;BME280_pressure;Samples;Min_cycle;Max_cycle;Signal;HPM_P1;HPM_P2
2022/12/03 00:00:10;;;;;;;8.60;3.70;;;;;;;1.32;63.06;103590.16;5074618;28;20430;-70
2022/12/03 00:02:38;;;;;;;9.43;3.17;;;;;;;1.35;63.39;103598.97;5080443;28;20048;-70
2022/12/03 00:05:05;;;;;;;10.57;5.25;;;;;;;1.35;62.38;103593.81;5078664;28;20491;-70
2022/12/03 00:07:32;;;;;;;8.82;5.05;;;;;;;1.33;62.65;103602.22;5073587;28;20044;-70
2022/12/03 00:09:59;;;;;;;10.73;4.47;;;;;;;1.33;63.00;103602.22;5074057;28;20070;-70
2022/12/03 00:12:25;;;;;;;6.55;3.15;;;;;;;1.32;63.08;103592.72;5081792;28;20605;-70
2022/12/03 00:14:52;;;;;;;8.43;4.25;;;;;;;1.32;63.07;103585.00;5077482;28;20078;-70
2022/12/03 00:17:19;;;;;;;8.00;3.78;;;;;;;1.32;63.46;103590.16;5078878;28;20102;-70
2022/12/03 00:19:47;;;;;;;7.05;4.50;;;;;;;1.31;62.67;103583.22;5076726;28;20721;-70
2022/12/03 00:22:14;;;;;;;9.57;4.75;;;;;;;1.27;61.76;103591.53;5077596;28;20051;-70
2022/12/03 00:24:41;;;;;;;9.32;4.00;;;;;;;1.26;62.19;103587.19;5074512;28;20109;-70
2022/12/03 00:27:08;;;;;;;10.38;5.38;;;;;;;1.24;62.56;103591.34;5076694;28;20560;-70
2022/12/03 00:29:34;;;;;;;11.43;5.30;;;;;;;1.21;61.77;103586.00;5076092;28;20071;-70
2022/12/03 00:32:01;;;;;;;8.10;4.57;;;;;;;1.20;61.17;103591.94;5076866;28;20106;-70
2022/12/03 00:34:28;;;;;;;9.10;3.58;;;;;;;1.18;62.06;103590.94;5077319;28;20040;-70
2022/12/03 00:36:56;;;;;;;7.65;4.10;;;;;;;1.17;62.21;103600.34;5077606;28;20128;-70
2022/12/03 00:39:23;;;;;;;8.75;4.07;;;;;;;1.12;61.72;103589.75;5078440;28;20048;-69
2022/12/03 00:41:49;;;;;;;8.13;4.55;;;;;;;1.13;61.90;103598.34;5076224;28;20044;-70
2022/12/03 00:44:16;;;;;;;10.13;4.03;;;;;;;1.12;62.11;103592.31;5076632;28;20041;-70
2022/12/03 00:46:43;;;;;;;7.47;3.58;;;;;;;1.14;62.64;103592.44;5076580;28;20450;-69
2022/12/03 00:49:09;;;;;;;7.70;4.25;;;;;;;1.12;61.74;103587.16;5074757;28;20047;-70
2022/12/03 00:51:36;;;;;;;10.40;4.07;;;;;;;1.08;61.14;103590.34;5073342;28;20082;-70
2022/12/03 00:54:04;;;;;;;8.57;4.63;;;;;;;1.10;61.58;103593.88;5076164;28;20569;-70
2022/12/03 00:56:31;;;;;;;8.85;4.13;;;;;;;1.08;61.86;103586.84;5075008;28;20064;-70
2022/12/03 00:58:58;;;;;;;7.90;3.10;;;;;;;1.08;62.39;103587.78;5077694;28;20052;-70
2022/12/03 01:01:24;;;;;;;8.52;4.30;;;;;;;1.07;62.29;103585.97;5074103;28;20047;-70
2022/12/03 01:03:51;;;;;;;7.90;4.18;;;;;;;1.06;61.95;103586.78;5076027;28;20044;-70
2022/12/03 01:06:18;;;;;;;8.52;4.10;;;;;;;1.06;62.27;103591.03;5075304;28;20047;-70
2022/12/03 01:08:45;;;;;;;8.25;3.50;;;;;;;1.03;61.46;103586.56;5076099;28;20044;-70
2022/12/03 01:13:53;;;;;;;9.77;5.07;;;;;;;1.01;62.29;103589.84;5076956;28;20051;-70
2022/12/03 01:16:20;;;;;;;7.32;5.25;;;;;;;0.89;61.80;103562.50;5074832;28;20043;-70
2022/12/03 01:18:47;;;;;;;8.85;4.45;;;;;;;1.00;61.41;103585.50;5074954;28;20087;-70
2022/12/03 01:21:13;;;;;;;10.05;5.38;;;;;;;0.98;61.67;103587.06;5076062;28;20462;-70
2022/12/03 01:23:40;;;;;;;10.48;4.15;;;;;;;0.94;61.39;103585.97;5077409;28;20044;-70
2022/12/03 01:26:07;;;;;;;6.70;4.07;;;;;;;0.92;61.65;103584.97;5075368;28;20106;-70
2022/12/03 01:28:35;;;;;;;9.70;4.80;;;;;;;0.90;61.81;103583.97;5069619;28;20051;-70
2022/12/03 01:33:46;;;;;;;10.98;5.80;;;;;;;0.87;61.65;103589.81;5068794;28;20063;-70
2022/12/03 01:36:13;;;;;;;8.10;4.55;;;;;;;0.85;62.34;103585.34;5077160;28;20608;-70
2022/12/03 01:38:39;;;;;;;11.18;5.43;;;;;;;0.84;61.42;103583.56;5077288;28;20043;-70
2022/12/03 01:41:06;;;;;;;10.10;4.00;;;;;;;0.85;62.55;103587.91;5072989;28;20044;-70
2022/12/03 01:43:33;;;;;;;8.02;4.40;;;;;;;0.86;62.07;103600.91;5073330;28;20114;-70
2022/12/03 01:46:01;;;;;;;6.97;4.15;;;;;;;0.85;62.55;103591.41;5078656;28;20462;-70
2022/12/03 01:48:33;;;;;;;8.32;4.38;;;;;;;0.86;62.56;103588.03;5075618;28;20384;-69
2022/12/03 01:51:01;;;;;;;9.13;4.50;;;;;;;0.87;62.73;103591.50;5073269;28;20049;-70
2022/12/03 01:53:28;;;;;;;9.65;4.93;;;;;;;0.86;62.19;103587.16;5075796;28;20432;-70
2022/12/03 01:55:54;;;;;;;9.10;4.28;;;;;;;0.86;61.96;103589.72;5074536;28;20116;-70
2022/12/03 01:58:26;;;;;;;8.23;4.00;;;;;;;0.86;62.34;103582.00;5078245;28;20056;-70
2022/12/03 02:00:53;;;;;;;9.07;4.97;;;;;;;0.84;61.44;103578.41;5075750;28;20048;-70
2022/12/03 02:03:24;;;;;;;7.85;3.75;;;;;;;0.82;62.36;103578.31;5072432;28;20101;-70
2022/12/03 02:05:51;;;;;;;10.82;4.60;;;;;;;0.81;62.22;103575.66;5072241;28;20060;-70
2022/12/03 02:08:29;;;;;;;11.05;4.00;;;;;;;0.83;62.47;103581.78;5073665;28;20044;-70
2022/12/03 02:10:57;;;;;;;9.40;4.22;;;;;;;0.81;62.60;103575.66;5069870;28;20476;-70
2022/12/03 02:13:24;;;;;;;10.63;4.70;;;;;;;0.82;62.25;103573.16;5078181;28;20490;-70
2022/12/03 02:15:50;;;;;;;8.45;4.07;;;;;;;0.82;62.70;103575.72;5073395;28;20488;-70
2022/12/03 02:18:18;;;;;;;10.38;4.40;;;;;;;0.82;62.89;103577.41;5074697;28;20052;-70
2022/12/03 02:20:53;;;;;;;9.10;4.47;;;;;;;0.82;62.47;103574.84;5076167;28;20151;-70
2022/12/03 02:23:26;;;;;;;8.83;4.07;;;;;;;0.76;62.80;103572.75;5077465;28;20052;-70
2022/12/03 02:25:54;;;;;;;10.18;5.60;;;;;;;0.81;62.63;103580.78;5077147;28;20293;-70
2022/12/03 02:28:21;;;;;;;7.65;3.95;;;;;;;0.80;61.79;103576.44;5074267;28;20114;-70
2022/12/03 02:30:47;;;;;;;7.13;3.67;;;;;;;0.79;62.25;103575.53;5074902;28;20052;-70
2022/12/03 02:33:14;;;;;;;10.45;4.93;;;;;;;0.78;62.67;103578.91;5074974;28;20169;-70
2022/12/03 02:35:41;;;;;;;9.70;4.28;;;;;;;0.75;62.87;103563.25;5078664;28;20420;-69
2022/12/03 02:38:13;;;;;;;12.02;4.88;;;;;;;0.73;62.42;103563.94;5072188;28;20041;-70
2022/12/03 02:40:40;;;;;;;11.05;5.10;;;;;;;0.72;62.82;103572.47;5072997;28;20064;-70
2022/12/03 02:43:08;;;;;;;6.93;3.58;;;;;;;0.71;62.23;103570.66;5079734;28;20094;-70
2022/12/03 02:45:39;;;;;;;8.27;3.92;;;;;;;0.70;62.91;103569.78;5078435;28;20044;-70
2022/12/03 02:48:10;;;;;;;10.05;6.03;;;;;;;0.68;62.96;103571.34;5080763;28;20078;-70
2022/12/03 02:50:41;;;;;;;9.10;3.78;;;;;;;0.68;63.13;103566.19;5085699;28;20558;-70
2022/12/03 02:53:11;;;;;;;7.75;3.63;;;;;;;0.69;62.90;103567.13;5074353;28;20044;-69
2022/12/03 02:55:39;;;;;;;6.78;3.55;;;;;;;0.69;63.22;103569.69;5076591;28;20040;-69
2022/12/03 02:58:08;;;;;;;6.57;3.70;;;;;;;0.69;63.32;103570.59;5078951;28;20509;-69
2022/12/03 03:00:36;;;;;;;8.25;4.38;;;;;;;0.67;62.59;103573.03;5077671;28;20055;-70
2022/12/03 03:03:04;;;;;;;6.95;3.65;;;;;;;0.65;62.73;103568.56;5080291;28;20476;-70
2022/12/03 03:05:33;;;;;;;8.13;4.10;;;;;;;0.64;62.90;103559.97;5080573;28;20471;-70
2022/12/03 03:08:01;;;;;;;6.90;3.80;;;;;;;0.63;63.31;103567.59;5081247;28;20040;-70
2022/12/03 03:10:29;;;;;;;6.88;3.00;;;;;;;0.63;62.49;103578.78;5076341;28;20032;-70
2022/12/03 03:12:56;;;;;;;10.43;3.80;;;;;;;0.61;63.13;103570.06;5080194;28;20217;-70
2022/12/03 03:15:25;;;;;;;5.88;3.42;;;;;;;0.60;63.44;103568.28;5080407;28;20503;-70
2022/12/03 03:17:52;;;;;;;6.82;3.58;;;;;;;0.61;62.92;103572.63;5075718;28;20052;-70
2022/12/03 03:20:19;;;;;;;7.70;3.72;;;;;;;0.60;63.62;103567.41;5081372;28;20097;-70
2022/12/03 03:22:46;;;;;;;11.48;4.60;;;;;;;0.59;63.36;103560.44;5074014;28;20103;-70
2022/12/03 03:25:16;;;;;;;6.88;3.35;;;;;;;0.57;62.89;103562.94;5077718;28;20052;-70
2022/12/03 03:27:44;;;;;;;8.05;4.07;;;;;;;0.56;63.15;103560.25;5078316;28;20109;-70
2022/12/03 03:30:13;;;;;;;8.45;3.67;;;;;;;0.49;62.82;103551.25;5075988;28;20049;-70
2022/12/03 03:32:42;;;;;;;6.53;3.33;;;;;;;0.55;63.22;103553.34;5077416;28;20102;-70
2022/12/03 03:35:10;;;;;;;6.35;2.78;;;;;;;0.47;63.32;103547.66;5076216;28;20094;-70
2022/12/03 03:37:38;;;;;;;9.32;3.35;;;;;;;0.54;63.32;103557.59;5080455;28;20040;-70
2022/12/03 03:40:06;;;;;;;10.48;4.30;;;;;;;0.51;63.09;103546.19;5078497;28;20508;-70
2022/12/03 03:42:33;;;;;;;6.60;2.92;;;;;;;0.53;63.67;103545.50;5079689;28;20047;-70
2022/12/03 03:45:00;;;;;;;9.02;4.60;;;;;;;0.52;63.34;103541.16;5081725;28;20044;-70
2022/12/03 03:47:26;;;;;;;9.07;3.33;;;;;;;0.51;62.95;103541.03;5080426;28;20051;-70
2022/12/03 03:49:55;;;;;;;9.25;3.60;;;;;;;0.50;63.25;103546.97;5081460;28;20712;-70
2022/12/03 03:52:23;;;;;;;8.35;3.80;;;;;;;0.49;62.66;103537.50;5076220;28;20040;-70
2022/12/03 03:54:50;;;;;;;9.27;3.90;;;;;;;0.44;63.39;103532.91;5079190;28;20052;-77
2022/12/03 03:57:17;;;;;;;5.78;3.10;;;;;;;0.47;63.69;103545.09;5076766;28;20048;-76
2022/12/03 03:59:43;;;;;;;8.93;3.72;;;;;;;0.46;62.82;103543.31;5082281;28;20086;-77
2022/12/03 04:02:18;;;;;;;8.15;4.50;;;;;;;0.47;62.79;103545.09;5078087;28;20114;-77
2022/12/03 04:04:45;;;;;;;8.02;3.80;;;;;;;0.44;63.30;103539.75;5079515;28;20131;-77
2022/12/03 04:07:13;;;;;;;6.25;2.53;;;;;;;0.42;63.29;103531.03;5079964;28;20090;-77
2022/12/03 04:09:40;;;;;;;8.30;4.13;;;;;;;0.35;62.42;103529.72;5085533;28;20048;-77
2022/12/03 04:14:51;;;;;;;6.80;2.97;;;;;;;0.33;62.27;103550.97;5078214;28;20052;-77
2022/12/03 04:17:18;;;;;;;7.18;3.42;;;;;;;0.34;62.81;103547.63;5082965;28;20070;-77
2022/12/03 04:19:44;;;;;;;6.45;3.13;;;;;;;0.32;63.24;103550.09;5076271;28;20048;-76
2022/12/03 04:28:47;;;;;;;4.38;1.98;;;;;;;0.30;62.47;103548.22;5084067;28;20060;-77
2022/12/03 04:30:28;;;;;;;6.90;3.25;;;;;;;0.30;62.83;103545.63;5075536;28;20048;-78
2022/12/03 04:35:45;;;;;;;4.32;2.33;;;;;;;0.29;62.21;103529.31;5075242;28;20506;-78
2022/12/03 04:38:15;;;;;;;5.75;2.75;;;;;;;0.30;62.51;103523.38;5076724;28;20055;-77
2022/12/03 04:41:02;;;;;;;4.20;2.25;;;;;;;0.26;62.64;103515.34;5080738;28;20067;-77
2022/12/03 04:43:30;;;;;;;7.55;2.90;;;;;;;0.30;63.00;103527.63;5078780;28;20047;-77
2022/12/03 04:45:57;;;;;;;8.23;3.60;;;;;;;0.30;61.99;103530.22;5080417;28;20796;-77
2022/12/03 04:48:24;;;;;;;4.53;2.50;;;;;;;0.31;62.48;103526.84;5078681;28;20417;-77
2022/12/03 04:50:51;;;;;;;7.03;1.95;;;;;;;0.30;63.20;103525.06;5081441;28;21450;-77
2022/12/03 04:53:19;;;;;;;5.00;2.78;;;;;;;0.33;63.00;103525.28;5077215;28;20045;-77
2022/12/03 04:55:46;;;;;;;6.30;2.25;;;;;;;0.34;63.27;103529.63;5082856;28;20044;-77
2022/12/03 04:58:13;;;;;;;5.53;2.13;;;;;;;0.34;62.18;103527.03;5080870;28;20106;-77
2022/12/03 05:00:40;;;;;;;5.53;2.47;;;;;;;0.34;63.07;103519.34;5078003;28;20734;-77
2022/12/03 05:03:06;;;;;;;6.47;2.67;;;;;;;0.36;63.32;103517.75;5077433;28;20048;-77
2022/12/03 05:05:33;;;;;;;5.22;2.13;;;;;;;0.36;62.91;103520.34;5081072;28;20044;-77
2022/12/03 05:08:00;;;;;;;5.78;2.55;;;;;;;0.37;63.29;103516.97;5079894;28;20499;-77
2022/12/03 05:10:28;;;;;;;6.80;2.80;;;;;;;0.38;63.52;103518.75;5077397;28;20097;-77
2022/12/03 05:12:54;;;;;;;6.65;2.88;;;;;;;0.40;63.87;103522.34;5079401;28;20100;-77
2022/12/03 05:15:21;;;;;;;4.55;2.10;;;;;;;0.41;63.37;103518.97;5080378;28;20116;-78
2022/12/03 05:17:48;;;;;;;5.13;2.20;;;;;;;0.43;64.29;103522.53;5077062;28;20049;-77
2022/12/03 05:22:59;;;;;;;4.68;2.10;;;;;;;0.44;64.15;103524.31;5078732;28;20050;-76
2022/12/03 05:25:26;;;;;;;6.45;2.63;;;;;;;0.45;63.70;103523.50;5082646;28;20039;-77
2022/12/03 05:27:54;;;;;;;3.38;1.90;;;;;;;0.46;63.70;103530.47;5087270;28;20044;-77
2022/12/03 05:30:21;;;;;;;4.70;2.30;;;;;;;0.47;64.43;103531.34;5084968;28;20039;-77
2022/12/03 05:32:48;;;;;;;5.88;2.67;;;;;;;0.47;64.19;103532.22;5077651;28;20105;-77
2022/12/03 05:35:15;;;;;;;6.03;2.63;;;;;;;0.48;63.90;103533.13;5077827;28;20059;-77
2022/12/03 05:37:42;;;;;;;4.07;1.88;;;;;;;0.48;63.75;103533.13;5077619;28;20106;-78
2022/12/03 05:40:10;;;;;;;4.60;2.45;;;;;;;0.47;63.58;103526.19;5078401;28;20052;-78
2022/12/03 05:42:55;;;;;;;4.32;1.92;;;;;;;0.45;64.55;103532.13;5080108;28;20047;-77
2022/12/03 05:45:25;;;;;;;4.72;2.42;;;;;;;0.45;64.05;103526.09;5083353;28;20066;-77
2022/12/03 05:47:52;;;;;;;4.90;2.97;;;;;;;0.45;63.42;103526.09;5075874;28;20048;-77
2022/12/03 05:50:19;;;;;;;2.85;1.52;;;;;;;0.43;63.55;103522.53;5079789;28;20400;-77
2022/12/03 05:52:46;;;;;;;2.92;1.73;;;;;;;0.44;64.19;103525.19;5080533;28;20052;-77
2022/12/03 05:55:13;;;;;;;4.68;2.45;;;;;;;0.44;63.98;103522.63;5083499;28;20052;-77
2022/12/03 05:57:40;;;;;;;3.67;2.15;;;;;;;0.46;63.42;103522.75;5083473;28;20051;-76
2022/12/03 06:00:11;;;;;;;4.28;2.38;;;;;;;0.46;63.87;103522.75;5072882;28;20067;-77
2022/12/03 06:02:40;;;;;;;4.43;2.80;;;;;;;0.46;63.65;103517.59;5078962;28;20090;-77
2022/12/03 06:05:07;;;;;;;3.67;1.65;;;;;;;0.47;64.07;103528.78;5076546;28;20125;-78
2022/12/03 06:07:34;;;;;;;6.15;1.63;;;;;;;0.48;64.01;103530.53;5079937;28;20040;-77
2022/12/03 06:10:01;;;;;;;4.38;1.50;;;;;;;0.48;63.61;103536.56;5078927;28;20040;-77
2022/12/03 06:12:27;;;;;;;3.72;1.70;;;;;;;0.48;63.84;103536.56;5076043;28;20532;-77
2022/12/03 06:14:54;;;;;;;3.70;1.83;;;;;;;0.47;63.63;103534.81;5072362;28;20044;-77
2022/12/03 06:17:21;;;;;;;3.53;1.60;;;;;;;0.48;63.58;103531.44;5079475;28;20049;-77
2022/12/03 06:19:49;;;;;;;4.90;1.42;;;;;;;0.48;64.03;103536.56;5080264;28;20105;-76
2022/12/03 06:22:16;;;;;;;3.08;1.45;;;;;;;0.49;63.76;103519.50;5077064;28;20565;-77
2022/12/03 06:24:43;;;;;;;4.20;2.30;;;;;;;0.49;64.00;103522.06;5074651;28;20422;-77
2022/12/03 06:27:10;;;;;;;4.18;2.25;;;;;;;0.49;63.02;103519.50;5075880;28;20041;-77
2022/12/03 06:29:37;;;;;;;3.38;1.58;;;;;;;0.48;63.71;103526.28;5076766;28;20109;-77
2022/12/03 06:32:04;;;;;;;5.95;2.17;;;;;;;0.48;63.63;103522.84;5079849;28;20045;-77
2022/12/03 06:34:32;;;;;;;2.92;1.33;;;;;;;0.48;63.42;103518.56;5081212;28;20048;-77
2022/12/03 06:37:00;;;;;;;4.65;1.45;;;;;;;0.47;63.29;103519.38;5082028;28;20044;-77
2022/12/03 06:39:27;;;;;;;7.07;2.03;;;;;;;0.48;62.91;103522.84;5075083;28;20718;-77
2022/12/03 06:41:53;;;;;;;2.95;2.00;;;;;;;0.46;62.69;103522.75;5073673;28;20430;-77
2022/12/03 06:44:20;;;;;;;5.20;2.00;;;;;;;0.42;62.43;103524.19;5074100;28;20129;-76
2022/12/03 06:46:47;;;;;;;3.78;1.80;;;;;;;0.40;63.35;103519.78;5076093;28;20053;-77
2022/12/03 06:49:13;;;;;;;3.13;1.55;;;;;;;0.41;63.44;103524.13;5076909;28;20101;-77
2022/12/03 06:51:40;;;;;;;4.82;1.70;;;;;;;0.40;62.60;103522.34;5072224;28;20448;-78
2022/12/03 06:54:09;;;;;;;4.82;1.67;;;;;;;0.39;62.47;103521.41;5076700;28;20037;-77
2022/12/03 06:56:35;;;;;;;4.30;1.63;;;;;;;0.37;62.79;103528.16;5077007;28;20048;-77
2022/12/03 06:59:02;;;;;;;2.78;1.25;;;;;;;0.38;62.67;103529.94;5077279;28;20045;-76
2022/12/03 07:01:29;;;;;;;1.95;0.75;;;;;;;0.38;62.90;103534.19;5076682;28;20056;-77
2022/12/03 07:03:56;;;;;;;3.10;1.58;;;;;;;0.37;62.62;103533.31;5072870;28;20087;-77
2022/12/03 07:06:22;;;;;;;3.95;1.13;;;;;;;0.37;62.42;103532.38;5075313;28;20716;-77
2022/12/03 07:08:49;;;;;;;2.72;1.33;;;;;;;0.37;63.46;103537.53;5075792;28;20197;-77
2022/12/03 07:11:38;;;;;;;2.78;1.02;;;;;;;0.37;62.92;103535.88;5076851;28;20048;-77
2022/12/03 07:14:07;;;;;;;3.38;1.35;;;;;;;0.36;62.94;103541.78;5076715;28;20044;-77
2022/12/03 07:16:34;;;;;;;8.57;1.63;;;;;;;0.37;63.22;103548.75;5075340;28;20071;-78
2022/12/03 07:19:01;;;;;;;4.78;2.10;;;;;;;0.38;62.89;103540.22;5080051;28;20040;-77
2022/12/03 07:21:28;;;;;;;5.30;1.50;;;;;;;0.38;62.36;103534.19;5079509;28;20044;-76
2022/12/03 07:23:54;;;;;;;3.95;1.45;;;;;;;0.38;62.84;103534.19;5069269;28;20044;-77
2022/12/03 07:26:22;;;;;;;3.70;1.38;;;;;;;0.39;63.13;103521.41;5086563;28;20056;-78
2022/12/03 07:28:49;;;;;;;3.88;1.85;;;;;;;0.39;62.65;103526.56;5083271;28;20592;-75
2022/12/03 07:31:16;;;;;;;3.85;1.48;;;;;;;0.39;62.91;103524.00;5080708;28;20094;-75
2022/12/03 07:33:43;;;;;;;4.38;1.98;;;;;;;0.40;62.68;103530.06;5079393;28;20044;-75
2022/12/03 07:36:10;;;;;;;4.78;1.58;;;;;;;0.39;62.60;103520.53;5078413;28;20048;-75
2022/12/03 07:38:36;;;;;;;6.60;2.22;;;;;;;0.40;63.75;103524.91;5077591;28;20454;-76
2022/12/03 07:41:03;;;;;;;5.78;2.20;;;;;;;0.39;63.61;103525.69;5076375;28;20090;-74
2022/12/03 07:43:31;;;;;;;4.18;1.60;;;;;;;0.40;62.84;103527.50;5081637;28;20056;-76
2022/12/03 07:45:58;;;;;;;5.82;2.03;;;;;;;0.38;62.32;103526.47;5081038;28;20048;-75
2022/12/03 07:48:25;;;;;;;4.47;1.65;;;;;;;0.35;63.00;103523.72;5076296;28;20045;-75
2022/12/03 07:50:51;;;;;;;3.92;1.38;;;;;;;0.35;63.09;103529.72;5074209;28;20044;-75
2022/12/03 07:53:18;;;;;;;4.18;1.25;;;;;;;0.34;62.61;103527.97;5080343;28;20555;-75
2022/12/03 07:55:45;;;;;;;4.90;2.50;;;;;;;0.34;62.49;103527.03;5078058;28;20090;-75
2022/12/03 07:58:12;;;;;;;3.00;1.08;;;;;;;0.33;61.62;103531.31;5077133;28;20393;-75
2022/12/03 08:00:40;;;;;;;4.90;1.98;;;;;;;0.31;62.24;103535.44;5077062;28;20052;-76
2022/12/03 08:03:07;;;;;;;7.72;2.97;;;;;;;0.29;61.76;103537.03;5078039;28;20060;-76
2022/12/03 08:05:34;;;;;;;4.38;1.67;;;;;;;0.29;61.94;103544.75;5078690;28;20093;-75
2022/12/03 08:08:01;;;;;;;3.08;1.88;;;;;;;0.28;61.91;103542.06;5077540;28;20465;-76
2022/12/03 08:10:27;;;;;;;3.97;1.30;;;;;;;0.26;62.08;103543.63;5074772;28;20563;-75
2022/12/03 08:12:58;;;;;;;3.65;1.30;;;;;;;0.27;61.97;103542.84;5075173;28;20072;-75
2022/12/03 08:15:28;;;;;;;2.33;1.25;;;;;;;0.27;62.08;103542.84;5079493;28;20063;-75
2022/12/03 08:17:58;;;;;;;5.85;1.35;;;;;;;0.26;62.62;103543.63;5077300;28;20086;-75
2022/12/03 08:20:26;;;;;;;3.25;1.10;;;;;;;0.24;62.41;103537.50;5079656;28;20106;-75
2022/12/03 08:22:54;;;;;;;3.95;1.67;;;;;;;0.24;62.65;103535.81;5078671;28;20488;-75
2022/12/03 08:25:23;;;;;;;5.00;1.42;;;;;;;0.24;62.12;103527.22;5078867;28;20041;-75
2022/12/03 08:27:51;;;;;;;2.90;1.23;;;;;;;0.24;62.56;103527.22;5078365;28;20094;-76
2022/12/03 08:30:19;;;;;;;2.97;1.85;;;;;;;0.27;62.11;103536.03;5077449;28;20052;-76
2022/12/03 08:32:45;;;;;;;4.85;1.95;;;;;;;0.27;61.93;103536.03;5075346;28;20184;-76
2022/12/03 08:35:20;;;;;;;4.45;1.45;;;;;;;0.25;62.12;103541.84;5079955;28;20062;-76
2022/12/03 08:37:49;;;;;;;3.30;1.20;;;;;;;0.24;61.44;103534.94;5080519;28;20048;-76
2022/12/03 08:40:23;;;;;;;5.40;2.10;;;;;;;0.24;61.88;103535.81;5076480;28;20102;-76
2022/12/03 08:42:50;;;;;;;4.28;1.80;;;;;;;0.22;61.80;103535.72;5079760;28;20592;-76
2022/12/03 08:45:34;;;;;;;5.25;1.98;;;;;;;0.22;62.22;103539.97;5075399;28;20077;-74
2022/12/03 08:48:03;;;;;;;3.40;1.52;;;;;;;0.20;61.39;103544.13;5076378;28;20106;-74
2022/12/03 08:50:40;;;;;;;4.57;2.20;;;;;;;0.21;61.24;103557.06;5077440;28;20080;-77
2022/12/03 08:53:23;;;;;;;2.92;1.25;;;;;;;0.20;61.13;103552.72;5074747;28;20623;-75
2022/12/03 08:55:52;;;;;;;2.47;1.30;;;;;;;0.15;61.16;103540.34;5072683;28;20569;-75
2022/12/03 08:58:24;;;;;;;3.28;1.38;;;;;;;0.18;61.03;103544.00;5078317;28;20044;-75
2022/12/03 09:00:56;;;;;;;3.45;0.63;;;;;;;0.15;61.65;103541.22;5079623;28;20662;-73
2022/12/03 09:03:23;;;;;;;4.32;1.27;;;;;;;0.18;62.02;103544.00;5077954;28;20048;-74
2022/12/03 09:05:51;;;;;;;6.18;1.60;;;;;;;0.19;60.89;103543.22;5073646;28;20054;-75
2022/12/03 09:08:18;;;;;;;4.82;1.75;;;;;;;0.17;61.73;103543.88;5078151;28;20086;-74
2022/12/03 09:10:45;;;;;;;2.60;0.82;;;;;;;0.17;61.15;103547.38;5079590;28;20474;-74
2022/12/03 09:13:11;;;;;;;2.40;1.08;;;;;;;0.17;61.35;103539.66;5076899;28;20464;-74
2022/12/03 09:15:38;;;;;;;2.47;1.25;;;;;;;0.17;61.18;103534.53;5075608;28;20094;-74
2022/12/03 09:18:05;;;;;;;3.75;1.38;;;;;;;0.16;60.92;103532.72;5075079;28;20098;-74
2022/12/03 09:20:32;;;;;;;2.67;1.40;;;;;;;0.17;61.08;103533.59;5073824;28;20105;-75
2022/12/03 09:23:00;;;;;;;3.88;0.98;;;;;;;0.15;61.58;103528.38;5076329;28;20040;-75
2022/12/03 09:25:27;;;;;;;2.88;1.40;;;;;;;0.18;61.62;103535.41;5074792;28;20131;-75
2022/12/03 09:27:53;;;;;;;4.32;1.50;;;;;;;0.18;61.31;103530.28;5078185;28;20074;-74
2022/12/03 09:30:20;;;;;;;3.38;1.13;;;;;;;0.17;60.95;103529.38;5074647;28;20052;-74
2022/12/03 09:32:47;;;;;;;5.15;1.75;;;;;;;0.17;61.20;103521.66;5075444;28;20454;-74
2022/12/03 09:35:14;;;;;;;2.65;1.05;;;;;;;0.14;61.20;103513.75;5073288;28;20037;-74
2022/12/03 09:37:40;;;;;;;2.05;0.95;;;;;;;0.17;60.82;103521.66;5075109;28;20049;-74
2022/12/03 09:40:10;;;;;;;1.67;0.80;;;;;;;0.18;60.88;103526.00;5075053;28;20408;-74
2022/12/03 09:42:38;;;;;;;3.45;1.35;;;;;;;0.16;61.74;103507.03;5071435;28;20047;-75
2022/12/03 09:45:09;;;;;;;4.50;1.52;;;;;;;0.19;60.78;103511.47;5073872;28;20071;-75
2022/12/03 09:47:36;;;;;;;2.40;0.90;;;;;;;0.18;61.40;103504.56;5074598;28;20151;-74
2022/12/03 09:50:04;;;;;;;2.80;1.15;;;;;;;0.18;61.33;103510.59;5078249;28;20400;-74
2022/12/03 09:52:33;;;;;;;2.45;0.40;;;;;;;0.19;61.24;103521.75;5079072;28;20052;-74
2022/12/03 09:55:03;;;;;;;1.88;0.95;;;;;;;0.20;61.80;103524.44;5072566;28;20044;-74
2022/12/03 09:57:32;;;;;;;2.28;0.95;;;;;;;0.20;60.98;103515.84;5073734;28;20048;-74
2022/12/03 09:59:59;;;;;;;2.03;0.80;;;;;;;0.19;60.76;103507.22;5076290;28;20736;-75
2022/12/03 10:02:29;;;;;;;4.35;1.15;;;;;;;0.15;61.10;103505.25;5074865;28;20581;-74
2022/12/03 10:04:56;;;;;;;3.28;0.90;;;;;;;0.14;60.98;103506.03;5074726;28;20051;-74
2022/12/03 10:07:28;;;;;;;2.92;1.10;;;;;;;0.15;61.20;103504.38;5074098;28;20101;-74
2022/12/03 10:09:55;;;;;;;2.35;1.42;;;;;;;0.15;60.97;103504.38;5072925;28;20075;-70
2022/12/03 10:12:29;;;;;;;4.13;0.90;;;;;;;0.12;60.79;103494.75;5075090;28;20044;-70
2022/12/03 10:15:03;;;;;;;3.88;0.90;;;;;;;0.17;61.44;103493.41;5077471;28;20044;-70
2022/12/03 10:17:31;;;;;;;2.90;1.52;;;;;;;0.19;60.64;103496.06;5076288;28;20040;-70
2022/12/03 10:19:58;;;;;;;1.98;1.00;;;;;;;0.16;60.10;103491.59;5072292;28;20066;-70
2022/12/03 10:22:25;;;;;;;3.15;1.65;;;;;;;0.18;59.89;103499.44;5075252;28;20045;-70
2022/12/03 10:25:06;;;;;;;3.75;1.55;;;;;;;0.18;60.22;103505.44;5073988;28;21413;-70
2022/12/03 10:27:33;;;;;;;2.75;1.45;;;;;;;0.17;60.13;103511.41;5077749;28;20102;-70
2022/12/03 10:30:02;;;;;;;2.33;1.08;;;;;;;0.18;60.46;103512.28;5076845;28;20044;-70
2022/12/03 10:32:40;;;;;;;2.85;1.20;;;;;;;0.19;60.57;103502.09;5074396;28;20040;-70
2022/12/03 10:35:10;;;;;;;2.50;1.20;;;;;;;0.18;60.80;103500.31;5075511;28;20538;-70
2022/12/03 10:37:55;;;;;;;3.10;1.27;;;;;;;0.20;61.00;103505.56;5079316;28;20110;-70
2022/12/03 10:40:25;;;;;;;2.00;0.82;;;;;;;0.20;60.81;103500.44;5078071;28;20477;-70
2022/12/03 10:42:51;;;;;;;2.78;1.20;;;;;;;0.19;60.47;103496.94;5073505;28;20064;-70
2022/12/03 10:45:22;;;;;;;3.05;1.15;;;;;;;0.19;60.75;103494.38;5073570;28;20048;-70
2022/12/03 10:48:11;;;;;;;2.38;1.17;;;;;;;0.20;61.16;103498.75;5070641;28;20050;-70
2022/12/03 10:50:37;;;;;;;3.55;1.00;;;;;;;0.18;60.89;103500.31;5075188;28;20040;-70
2022/12/03 10:53:04;;;;;;;4.50;1.25;;;;;;;0.20;60.50;103501.31;5071818;28;20560;-70
2022/12/03 10:55:38;;;;;;;5.03;1.02;;;;;;;0.21;60.50;103494.50;5075308;28;20106;-70
2022/12/03 10:58:05;;;;;;;4.75;1.38;;;;;;;0.21;60.84;103487.66;5075718;28;20052;-70
2022/12/03 11:00:33;;;;;;;3.08;1.02;;;;;;;0.23;60.60;103490.34;5074746;28;20044;-70
2022/12/03 11:03:00;;;;;;;1.48;0.60;;;;;;;0.23;60.83;103490.34;5076556;28;20044;-70
2022/12/03 11:05:28;;;;;;;5.03;1.13;;;;;;;0.24;60.81;103483.53;5076747;28;20094;-70
2022/12/03 11:07:55;;;;;;;3.13;1.02;;;;;;;0.24;61.00;103488.66;5078723;28;20093;-70
2022/12/03 11:10:22;;;;;;;4.18;1.10;;;;;;;0.26;60.99;103487.06;5075411;28;20101;-70
2022/12/03 11:13:35;;;;;;;3.28;0.98;;;;;;;0.28;60.87;103490.63;5071348;28;20064;-70
2022/12/03 11:16:04;;;;;;;2.97;1.55;;;;;;;0.28;60.88;103493.22;5031970;28;20411;-70
2022/12/03 11:19:01;;;;;;;2.88;1.35;;;;;;;0.27;61.24;103494.00;5077649;28;20052;-70
2022/12/03 11:21:27;;;;;;;;;;;;;;;0.27;60.93;103499.16;5080470;28;20056;-70
2022/12/03 11:24:20;;;;;;;1.85;1.10;;;;;;;0.25;61.23;103487.88;5079175;28;19927;-70
2022/12/03 11:27:06;;;;;;;5.97;1.52;;;;;;;0.26;61.20;103487.06;5075751;28;20086;-70
2022/12/03 11:30:00;;;;;;;3.55;1.27;;;;;;;0.26;61.12;103489.63;5080391;28;20093;-70
2022/12/03 11:33:02;;;;;;;4.45;1.63;;;;;;;0.26;60.72;103489.63;5076095;28;20040;-70
2022/12/03 11:36:00;;;;;;;3.45;1.35;;;;;;;0.27;61.18;103483.72;5076019;28;20052;-70
2022/12/03 11:38:51;;;;;;;2.83;1.25;;;;;;;0.28;60.90;103482.94;5076875;28;20118;-71
2022/12/03 11:41:20;;;;;;;4.65;1.00;;;;;;;0.23;60.43;103480.06;5079612;28;20048;-70
2022/12/03 11:44:27;;;;;;;4.80;1.45;;;;;;;0.23;60.33;103477.50;5077640;28;20052;-70
2022/12/03 11:46:55;;;;;;;2.60;1.10;;;;;;;0.22;60.91;103478.25;5081050;28;20152;-70
2022/12/03 11:49:38;;;;;;;1.95;1.13;;;;;;;0.25;61.09;103475.91;5079393;28;20052;-70
2022/12/03 11:52:22;;;;;;;3.22;1.27;;;;;;;0.24;61.45;103476.69;5080829;28;20044;-72
2022/12/03 11:54:53;;;;;;;3.83;1.92;;;;;;;0.27;61.09;103474.34;5081545;28;20044;-72
2022/12/03 11:57:30;;;;;;;2.03;0.90;;;;;;;0.28;60.86;103472.66;5079949;28;20048;-72
2022/12/03 12:00:06;;;;;;;4.25;1.10;;;;;;;0.28;61.26;103480.34;5082940;28;20097;-72
2022/12/03 12:02:33;;;;;;;5.40;1.77;;;;;;;0.29;60.76;103477.03;5080112;28;20461;-72